Time;durP1;ratioP1;P1;durP2;ratioP2;P2;SDS_P1;SDS_P2;PMS_P1;PMS_P2;Temp;Humidity;BMP_temperature;BMP_pressure;BME280_temperature;BME280_humidity;BME280_pressure;Samples;Min_cycle;Max_cycle;Signal;HPM_P1;HPM_P2
2022/07/17 00:00:13;;;;;;;2.65;1.50;;;13.70;99.90;;;;;;5076204;28;20048;-68
2022/07/17 00:02:39;;;;;;;7.13;1.80;;;13.70;99.90;;;;;;5070768;28;20040;-68
2022/07/17 00:05:05;;;;;;;6.93;2.20;;;13.70;99.90;;;;;;5071141;28;20043;-68
2022/07/17 00:07:31;;;;;;;6.32;1.83;;;13.70;99.90;;;;;;5081150;28;20040;-68
2022/07/17 00:09:57;;;;;;;4.43;1.85;;;13.70;99.90;;;;;;5090320;28;20041;-68
2022/07/17 00:12:23;;;;;;;4.68;1.58;;;13.70;99.90;;;;;;5071647;28;20055;-68
2022/07/17 00:14:48;;;;;;;4.68;1.80;;;13.60;99.90;;;;;;5069496;28;20093;-68
2022/07/17 00:17:14;;;;;;;9.25;2.00;;;13.60;99.90;;;;;;5070898;28;20032;-68
2022/07/17 00:19:40;;;;;;;4.35;1.73;;;13.60;99.90;;;;;;5070738;28;20055;-68
2022/07/17 00:22:06;;;;;;;3.72;2.53;;;13.60;99.90;;;;;;5070492;28;20048;-68
2022/07/17 00:24:31;;;;;;;8.60;2.20;;;13.50;99.90;;;;;;5069308;28;20037;-68
2022/07/17 00:26:57;;;;;;;5.18;2.10;;;13.50;99.90;;;;;;5070672;28;20045;-68
2022/07/17 00:29:22;;;;;;;5.13;2.15;;;13.50;99.90;;;;;;5069136;28;20521;-68
2022/07/17 00:31:48;;;;;;;3.83;1.80;;;13.50;99.90;;;;;;5070636;28;20048;-68
2022/07/17 00:34:14;;;;;;;5.85;2.08;;;13.40;99.90;;;;;;5070198;28;20064;-68
2022/07/17 00:36:39;;;;;;;3.00;2.42;;;13.40;99.90;;;;;;5070480;28;20086;-68
2022/07/17 00:39:05;;;;;;;2.83;2.13;;;13.20;99.90;;;;;;5070638;28;20036;-68
2022/07/17 00:41:31;;;;;;;4.43;2.72;;;13.00;99.90;;;;;;5070377;28;20143;-68
2022/07/17 00:44:07;;;;;;;5.50;1.90;;;13.10;99.90;;;;;;5070329;28;20036;-68
2022/07/17 00:46:33;;;;;;;4.00;2.00;;;13.10;99.90;;;;;;5070142;28;20044;-68
2022/07/17 00:49:00;;;;;;;4.45;2.40;;;13.10;99.90;;;;;;5070538;28;20043;-68
2022/07/17 00:51:25;;;;;;;7.00;2.28;;;13.10;99.90;;;;;;5070564;28;20120;-68
2022/07/17 00:53:52;;;;;;;6.47;2.10;;;13.10;99.90;;;;;;5069132;28;20467;-68
2022/07/17 00:56:20;;;;;;;3.88;1.70;;;13.10;99.90;;;;;;5070481;28;20039;-68
2022/07/17 00:58:49;;;;;;;3.05;1.75;;;12.90;99.90;;;;;;5070228;28;20408;-68
2022/07/17 01:01:15;;;;;;;2.60;1.80;;;12.80;99.90;;;;;;5070053;28;20564;-68
2022/07/17 01:03:41;;;;;;;7.40;1.60;;;12.70;99.90;;;;;;5068617;28;20128;-68
2022/07/17 01:06:07;;;;;;;2.25;1.60;;;12.60;99.90;;;;;;5070015;28;20170;-68
2022/07/17 01:08:33;;;;;;;4.25;2.00;;;12.60;99.90;;;;;;5070175;28;20043;-68
2022/07/17 01:10:58;;;;;;;3.83;2.03;;;12.60;99.90;;;;;;5070061;28;20497;-68
2022/07/17 01:13:25;;;;;;;5.60;1.75;;;12.60;99.90;;;;;;5070106;28;20036;-68
2022/07/17 01:15:51;;;;;;;3.47;1.52;;;12.60;99.90;;;;;;5077519;28;20124;-67
2022/07/17 01:18:16;;;;;;;6.57;1.90;;;12.70;99.90;;;;;;5087423;28;20040;-68
2022/07/17 01:20:44;;;;;;;5.22;1.70;;;12.70;99.90;;;;;;5069964;28;20041;-68
2022/07/17 01:23:10;;;;;;;6.70;1.70;;;12.70;99.90;;;;;;5068422;28;20055;-68
2022/07/17 01:25:37;;;;;;;3.53;1.80;;;12.70;99.90;;;;;;5070000;28;20040;-68
2022/07/17 01:28:04;;;;;;;4.32;1.95;;;12.70;99.90;;;;;;5068509;28;20046;-68
2022/07/17 01:30:30;;;;;;;1.73;1.63;;;12.70;99.90;;;;;;5069958;28;20045;-68
2022/07/17 01:32:55;;;;;;;3.60;2.00;;;12.70;99.90;;;;;;5069636;28;20461;-68
2022/07/17 01:35:21;;;;;;;3.63;1.80;;;12.70;99.90;;;;;;5068392;28;20083;-68
2022/07/17 01:37:47;;;;;;;3.83;1.92;;;12.70;99.90;;;;;;5069751;28;20508;-68
2022/07/17 01:40:15;;;;;;;3.00;1.70;;;12.70;99.90;;;;;;5069891;28;20140;-68
2022/07/17 01:42:49;;;;;;;2.97;1.70;;;12.70;99.90;;;;;;5069530;28;20484;-68
2022/07/17 01:45:16;;;;;;;4.07;1.60;;;12.70;99.90;;;;;;5069726;28;20526;-68
2022/07/17 01:47:42;;;;;;;4.45;1.95;;;12.50;99.90;;;;;;5069488;28;20037;-68
2022/07/17 01:50:10;;;;;;;4.93;2.33;;;12.50;99.90;;;;;;5069974;28;20406;-68
2022/07/17 01:52:38;;;;;;;4.38;1.85;;;12.40;99.90;;;;;;5069446;28;20107;-68
2022/07/17 01:55:08;;;;;;;1.65;1.50;;;12.40;99.90;;;;;;5069780;28;20052;-68
2022/07/17 01:57:33;;;;;;;2.03;1.52;;;12.40;99.90;;;;;;5068140;28;20132;-68
2022/07/17 02:00:00;;;;;;;3.53;1.75;;;12.40;99.90;;;;;;5069396;28;20131;-68
2022/07/17 02:02:26;;;;;;;1.77;1.48;;;12.40;99.90;;;;;;5069418;28;20052;-68
2022/07/17 02:04:52;;;;;;;2.28;1.55;;;12.30;99.90;;;;;;5069920;28;20670;-68
2022/07/17 02:07:17;;;;;;;4.00;1.80;;;12.20;99.90;;;;;;5072250;28;20040;-69
2022/07/17 02:09:43;;;;;;;2.28;1.48;;;12.20;99.90;;;;;;5071908;28;20461;-68
2022/07/17 02:12:08;;;;;;;2.00;1.75;;;12.10;99.90;;;;;;5071991;28;20044;-68
2022/07/17 02:14:34;;;;;;;3.20;1.50;;;12.10;99.90;;;;;;5072855;28;20071;-68
2022/07/17 02:17:00;;;;;;;3.17;1.73;;;12.10;99.90;;;;;;5072980;28;20663;-68
2022/07/17 02:19:25;;;;;;;2.30;1.63;;;12.20;99.90;;;;;;5072971;28;20040;-68
2022/07/17 02:21:51;;;;;;;2.15;1.60;;;12.30;99.90;;;;;;5072869;28;20036;-68
2022/07/17 02:24:17;;;;;;;2.60;1.55;;;12.20;99.90;;;;;;5073168;28;20477;-68
2022/07/17 02:26:42;;;;;;;3.10;1.58;;;12.20;99.90;;;;;;5084591;28;20041;-68
2022/07/17 02:29:08;;;;;;;2.65;1.60;;;12.10;99.90;;;;;;5092961;28;20040;-68
2022/07/17 02:31:33;;;;;;;2.67;1.55;;;11.90;99.90;;;;;;5075084;28;20047;-68
2022/07/17 02:33:59;;;;;;;1.83;1.60;;;11.80;99.90;;;;;;5072571;28;20048;-68
2022/07/17 02:36:25;;;;;;;6.57;1.75;;;11.80;99.90;;;;;;5071400;28;20036;-68
2022/07/17 02:38:51;;;;;;;2.30;1.60;;;11.80;99.90;;;;;;5072785;28;20033;-68
2022/07/17 02:41:17;;;;;;;2.47;1.40;;;11.80;99.90;;;;;;5072645;28;20103;-68
2022/07/17 02:43:43;;;;;;;2.60;1.67;;;11.80;99.90;;;;;;5072336;28;20384;-68
2022/07/17 02:46:08;;;;;;;4.88;1.88;;;11.70;99.90;;;;;;5072820;28;20728;-68
2022/07/17 02:48:34;;;;;;;2.53;1.80;;;11.60;99.90;;;;;;5071170;28;20041;-68
2022/07/17 02:51:00;;;;;;;2.30;1.48;;;11.50;99.90;;;;;;5071423;28;20048;-68
2022/07/17 02:53:25;;;;;;;3.80;1.92;;;11.50;99.90;;;;;;5072436;28;20055;-68
2022/07/17 02:55:51;;;;;;;2.53;1.38;;;11.40;99.90;;;;;;5072408;28;20468;-68
2022/07/17 02:58:16;;;;;;;3.15;1.60;;;11.40;99.90;;;;;;5072145;28;20496;-68
2022/07/17 03:00:42;;;;;;;2.70;1.48;;;11.40;99.90;;;;;;5070677;28;20563;-68
2022/07/17 03:03:08;;;;;;;4.07;1.65;;;11.50;99.90;;;;;;5070816;28;20044;-68
2022/07/17 03:05:33;;;;;;;4.18;1.80;;;11.50;99.90;;;;;;5072272;28;20044;-68
2022/07/17 03:07:59;;;;;;;2.80;1.42;;;11.50;99.90;;;;;;5072092;28;20032;-68
2022/07/17 03:10:24;;;;;;;2.35;1.60;;;11.50;99.90;;;;;;5072223;28;20119;-68
2022/07/17 03:12:50;;;;;;;4.07;1.80;;;11.40;99.90;;;;;;5071781;28;20091;-68
2022/07/17 03:15:15;;;;;;;1.58;1.48;;;11.40;99.90;;;;;;5071860;28;20043;-68
2022/07/17 03:17:42;;;;;;;3.28;1.60;;;11.50;99.90;;;;;;5071497;28;20094;-68
2022/07/17 03:20:09;;;;;;;3.53;1.80;;;11.50;99.90;;;;;;5072088;28;20048;-68
2022/07/17 03:22:34;;;;;;;2.30;1.55;;;11.60;99.90;;;;;;5070491;28;20404;-68
2022/07/17 03:25:00;;;;;;;4.68;1.70;;;11.60;99.90;;;;;;5070750;28;20143;-68
2022/07/17 03:27:25;;;;;;;3.90;1.70;;;11.70;99.90;;;;;;5070460;28;20047;-68
2022/07/17 03:29:53;;;;;;;5.80;1.50;;;11.70;99.90;;;;;;5071141;28;20044;-68
2022/07/17 03:32:19;;;;;;;1.75;1.48;;;11.70;99.90;;;;;;5079054;28;20048;-68
2022/07/17 03:34:44;;;;;;;3.97;1.70;;;11.70;99.90;;;;;;5089093;28;20040;-68
2022/07/17 03:37:10;;;;;;;3.42;1.73;;;11.60;99.90;;;;;;5072037;28;20045;-68
2022/07/17 03:39:35;;;;;;;3.08;1.60;;;11.50;99.90;;;;;;5070951;28;20516;-68
2022/07/17 03:42:01;;;;;;;2.15;1.60;;;11.40;99.90;;;;;;5070796;28;20178;-68
2022/07/17 03:44:27;;;;;;;3.03;1.73;;;11.50;99.90;;;;;;5070067;28;20554;-68
2022/07/17 03:46:52;;;;;;;4.63;1.60;;;11.60;99.90;;;;;;5071080;28;20035;-69
2022/07/17 03:49:18;;;;;;;1.98;1.55;;;11.60;99.90;;;;;;5071547;28;20114;-68
2022/07/17 03:51:44;;;;;;;4.55;1.65;;;11.50;99.90;;;;;;5071388;28;20106;-68
2022/07/17 03:54:09;;;;;;;3.00;2.00;;;11.40;99.90;;;;;;5069905;28;20123;-68
2022/07/17 03:56:35;;;;;;;5.78;1.70;;;11.40;99.90;;;;;;5070588;28;20089;-68
2022/07/17 03:59:00;;;;;;;2.85;1.70;;;11.40;99.90;;;;;;5071312;28;20051;-68
2022/07/17 04:01:26;;;;;;;2.75;1.67;;;11.40;99.90;;;;;;5071083;28;20094;-68
2022/07/17 04:03:52;;;;;;;2.70;1.60;;;11.40;99.90;;;;;;5070969;28;20051;-69
2022/07/17 04:06:17;;;;;;;3.17;2.08;;;11.30;99.90;;;;;;5071167;28;20063;-68
2022/07/17 04:08:43;;;;;;;2.47;1.83;;;11.30;99.90;;;;;;5070803;28;20504;-68
2022/07/17 04:11:09;;;;;;;2.15;1.95;;;11.40;99.90;;;;;;5069847;28;20060;-68
2022/07/17 04:13:34;;;;;;;3.50;1.85;;;11.50;99.90;;;;;;5070754;28;20064;-69
2022/07/17 04:16:00;;;;;;;1.70;1.38;;;11.50;99.90;;;;;;5071051;28;20107;-68
2022/07/17 04:18:33;;;;;;;2.13;1.42;;;11.50;99.90;;;;;;5069381;28;20052;-68
2022/07/17 04:21:04;;;;;;;2.53;1.50;;;11.50;99.90;;;;;;5069275;28;20505;-68
2022/07/17 04:23:30;;;;;;;3.10;1.70;;;11.60;99.90;;;;;;5070509;28;20476;-68
2022/07/17 04:25:55;;;;;;;4.25;1.80;;;11.40;99.90;;;;;;5069227;28;20485;-68
2022/07/17 04:28:21;;;;;;;3.63;1.85;;;11.20;99.90;;;;;;5070601;28;20192;-68
2022/07/17 04:30:47;;;;;;;5.53;2.50;;;11.20;99.90;;;;;;5069364;28;20036;-68
2022/07/17 04:33:13;;;;;;;2.90;1.70;;;11.20;99.90;;;;;;5070224;28;20044;-68
2022/07/17 04:35:39;;;;;;;2.40;1.70;;;11.40;99.90;;;;;;5052428;28;20052;-68
2022/07/17 04:38:06;;;;;;;2.85;1.77;;;11.40;99.90;;;;;;5070382;28;20040;-68
2022/07/17 04:40:32;;;;;;;2.17;1.50;;;11.30;99.90;;;;;;5079238;28;20040;-68
2022/07/17 04:42:58;;;;;;;2.70;1.92;;;11.30;99.90;;;;;;5073990;28;20036;-68
2022/07/17 04:45:24;;;;;;;2.75;1.77;;;11.50;99.90;;;;;;5072323;28;20041;-68
2022/07/17 04:47:49;;;;;;;2.42;1.80;;;11.60;99.90;;;;;;5069349;28;20036;-68
2022/07/17 04:50:15;;;;;;;2.70;2.05;;;11.50;99.90;;;;;;5069030;28;20385;-68
2022/07/17 04:52:41;;;;;;;3.67;1.80;;;11.60;99.90;;;;;;5070118;28;20618;-68
2022/07/17 04:55:07;;;;;;;3.65;2.13;;;11.60;99.90;;;;;;5068933;28;20506;-68
2022/07/17 04:57:32;;;;;;;6.32;2.30;;;11.50;99.90;;;;;;5070517;28;20097;-68
2022/07/17 04:59:58;;;;;;;3.13;2.08;;;11.40;99.90;;;;;;5070175;28;20143;-68
2022/07/17 05:02:24;;;;;;;5.03;1.90;;;11.60;99.90;;;;;;5069918;28;20404;-68
2022/07/17 05:04:49;;;;;;;5.28;1.90;;;11.80;99.90;;;;;;5070230;28;20048;-68
2022/07/17 05:07:15;;;;;;;4.07;2.40;;;12.00;99.90;;;;;;5068803;28;20074;-68
2022/07/17 05:09:41;;;;;;;2.85;2.17;;;11.90;99.90;;;;;;5070235;28;20040;-68
2022/07/17 05:12:07;;;;;;;3.13;2.10;;;12.00;99.90;;;;;;5070224;28;20197;-68
2022/07/17 05:14:33;;;;;;;4.03;1.92;;;12.30;99.90;;;;;;5069880;28;20552;-68
2022/07/17 05:16:59;;;;;;;4.53;2.38;;;12.50;99.90;;;;;;5068697;28;20068;-68
2022/07/17 05:19:24;;;;;;;4.22;2.50;;;12.70;99.90;;;;;;5069859;28;20186;-68
2022/07/17 05:21:50;;;;;;;3.85;2.10;;;12.70;99.90;;;;;;5068455;28;20049;-68
2022/07/17 05:24:16;;;;;;;4.10;2.22;;;12.80;99.90;;;;;;5069902;28;20131;-68
2022/07/17 05:26:41;;;;;;;3.72;2.13;;;13.00;99.90;;;;;;5068663;28;20100;-68
2022/07/17 05:29:07;;;;;;;2.45;2.10;;;13.10;99.90;;;;;;5070016;28;20032;-68
2022/07/17 05:31:33;;;;;;;4.72;2.22;;;13.10;99.90;;;;;;5070187;28;20040;-68
2022/07/17 05:33:58;;;;;;;3.55;2.13;;;13.10;99.90;;;;;;5069439;28;20036;-68
2022/07/17 05:36:25;;;;;;;3.45;2.90;;;13.00;99.90;;;;;;5068573;28;20132;-68
2022/07/17 05:38:51;;;;;;;3.70;2.20;;;13.10;99.90;;;;;;5068435;28;20148;-68
2022/07/17 05:41:16;;;;;;;6.10;2.90;;;13.20;99.90;;;;;;5073843;28;20043;-68
2022/07/17 05:43:42;;;;;;;5.50;3.33;;;13.30;99.90;;;;;;5071884;28;20044;-68
2022/07/17 05:46:08;;;;;;;8.57;3.42;;;13.40;99.90;;;;;;5073728;28;20046;-68
2022/07/17 05:48:33;;;;;;;7.63;3.13;;;13.50;99.90;;;;;;5078679;28;20061;-68
2022/07/17 05:50:59;;;;;;;8.70;3.67;;;13.60;99.90;;;;;;5094144;28;20036;-67
2022/07/17 05:53:24;;;;;;;6.78;2.83;;;13.70;99.90;;;;;;5079039;28;20519;-68
2022/07/17 05:55:50;;;;;;;6.35;2.92;;;13.70;99.90;;;;;;5073493;28;20055;-68
2022/07/17 05:58:16;;;;;;;7.72;2.92;;;13.70;99.90;;;;;;5072277;28;20041;-68
2022/07/17 06:00:41;;;;;;;4.97;3.10;;;13.80;99.90;;;;;;5072806;28;20041;-68
2022/07/17 06:03:07;;;;;;;8.65;3.50;;;13.70;99.90;;;;;;5072048;28;20377;-67
2022/07/17 06:05:32;;;;;;;9.93;3.15;;;13.80;99.90;;;;;;5073185;28;20033;-67
2022/07/17 06:07:59;;;;;;;7.00;3.35;;;13.90;99.90;;;;;;5073255;28;20043;-68
2022/07/17 06:10:26;;;;;;;9.20;3.25;;;13.90;99.90;;;;;;5073333;28;20040;-67
2022/07/17 06:12:52;;;;;;;5.97;3.28;;;14.00;99.90;;;;;;5072899;28;20043;-67
2022/07/17 06:15:19;;;;;;;7.07;3.03;;;14.00;99.90;;;;;;5073205;28;20125;-68
2022/07/17 06:17:45;;;;;;;8.75;3.17;;;14.10;99.90;;;;;;5073043;28;20037;-67
2022/07/17 06:20:12;;;;;;;16.52;3.22;;;14.10;99.90;;;;;;5072776;28;20135;-67
2022/07/17 06:22:37;;;;;;;5.78;3.05;;;14.20;99.90;;;;;;5072873;28;20037;-67
2022/07/17 06:25:03;;;;;;;10.27;3.00;;;14.20;99.90;;;;;;5073111;28;20041;-68
2022/07/17 06:27:29;;;;;;;5.65;2.67;;;14.30;99.90;;;;;;5072965;28;20044;-70
2022/07/17 06:29:55;;;;;;;8.20;2.83;;;14.40;99.90;;;;;;5054870;28;20060;-68
2022/07/17 06:32:20;;;;;;;11.30;3.17;;;14.50;99.90;;;;;;5072616;28;20119;-68
2022/07/17 06:34:46;;;;;;;7.25;3.25;;;14.70;99.90;;;;;;5072782;28;20087;-68
2022/07/17 06:37:11;;;;;;;4.55;2.50;;;14.90;99.90;;;;;;5072756;28;20070;-68
2022/07/17 06:39:37;;;;;;;7.97;2.78;;;15.10;99.90;;;;;;5072710;28;20120;-68
2022/07/17 06:42:03;;;;;;;8.07;2.78;;;15.30;99.90;;;;;;5071339;28;20774;-68
2022/07/17 06:44:28;;;;;;;9.52;2.80;;;15.50;99.90;;;;;;5071045;28;20123;-72
2022/07/17 06:46:54;;;;;;;7.75;2.25;;;15.70;99.90;;;;;;5071374;28;20055;-73
2022/07/17 06:49:19;;;;;;;6.10;2.08;;;15.90;99.90;;;;;;5071193;28;20389;-73
2022/07/17 06:51:45;;;;;;;4.25;1.65;;;16.10;99.90;;;;;;5070484;28;20485;-72
2022/07/17 06:54:15;;;;;;;5.47;2.35;;;16.20;99.90;;;;;;5070977;28;20044;-73
2022/07/17 06:56:41;;;;;;;4.25;1.95;;;16.20;99.90;;;;;;5078105;28;20016;-73
2022/07/17 06:59:07;;;;;;;5.93;2.05;;;16.30;99.90;;;;;;5098078;28;20051;-72
2022/07/17 07:01:34;;;;;;;4.95;1.60;;;16.50;99.90;;;;;;5082119;28;20052;-72
2022/07/17 07:04:00;;;;;;;6.57;1.40;;;16.60;99.90;;;;;;5070804;28;20127;-73
2022/07/17 07:06:25;;;;;;;6.15;1.70;;;16.80;99.90;;;;;;5071030;28;20144;-73
2022/07/17 07:08:51;;;;;;;5.88;1.40;;;16.90;99.90;;;;;;5070983;28;20086;-73
2022/07/17 07:11:16;;;;;;;3.42;1.23;;;17.10;99.90;;;;;;5054115;28;20079;-73
2022/07/17 07:13:42;;;;;;;3.58;1.40;;;17.20;99.90;;;;;;5070554;28;20044;-73
2022/07/17 07:16:08;;;;;;;6.95;1.58;;;17.20;99.90;;;;;;5072047;28;20040;-72
2022/07/17 07:18:33;;;;;;;4.25;1.13;;;17.30;99.90;;;;;;5053447;28;20516;-73
2022/07/17 07:20:59;;;;;;;5.47;1.38;;;17.40;99.90;;;;;;5070615;28;20044;-73
2022/07/17 07:23:24;;;;;;;7.70;1.23;;;17.40;99.90;;;;;;5070311;28;20492;-73
2022/07/17 07:25:50;;;;;;;4.05;1.10;;;17.60;99.90;;;;;;5070575;28;20068;-73
2022/07/17 07:28:16;;;;;;;4.35;1.00;;;17.70;99.90;;;;;;5070443;28;20040;-73
2022/07/17 07:30:42;;;;;;;8.27;1.38;;;17.80;99.90;;;;;;5070372;28;20596;-73
2022/07/17 07:33:07;;;;;;;11.70;1.17;;;17.90;99.90;;;;;;5071511;28;20043;-73
2022/07/17 07:35:33;;;;;;;6.05;1.40;;;18.00;99.90;;;;;;5071948;28;20758;-73
2022/07/17 07:37:58;;;;;;;9.45;1.20;;;18.10;99.90;;;;;;5082373;28;20036;-73
2022/07/17 07:40:26;;;;;;;3.28;0.98;;;18.20;99.90;;;;;;5073312;28;20040;-72
2022/07/17 07:42:52;;;;;;;6.68;1.15;;;18.20;99.90;;;;;;5089960;28;20048;-73
2022/07/17 07:45:17;;;;;;;3.45;1.00;;;18.30;99.90;;;;;;5090272;28;20043;-72
2022/07/17 07:47:45;;;;;;;6.80;1.33;;;18.40;99.90;;;;;;5090223;28;20047;-73
2022/07/17 07:50:12;;;;;;;5.63;1.10;;;18.30;99.90;;;;;;5089953;28;20044;-72
2022/07/17 07:52:38;;;;;;;2.60;1.05;;;18.50;99.90;;;;;;5089858;28;20048;-73
2022/07/17 07:55:04;;;;;;;4.32;1.17;;;18.50;99.90;;;;;;5073111;28;20083;-72
2022/07/17 07:57:30;;;;;;;4.15;1.05;;;18.60;99.90;;;;;;5089868;28;20530;-73
2022/07/17 07:59:56;;;;;;;4.05;1.20;;;18.50;99.90;;;;;;5089779;28;20044;-73
2022/07/17 08:02:21;;;;;;;3.00;1.00;;;18.60;99.90;;;;;;5090927;28;20109;-73
2022/07/17 08:04:47;;;;;;;7.82;1.08;;;18.70;99.90;;;;;;5095676;28;20040;-74
2022/07/17 08:07:12;;;;;;;5.80;1.20;;;18.60;99.90;;;;;;5118020;28;20032;-72
2022/07/17 08:09:38;;;;;;;3.90;1.10;;;18.60;99.90;;;;;;5100337;28;20036;-72
2022/07/17 08:12:03;;;;;;;7.35;1.00;;;18.80;99.90;;;;;;5089581;28;20556;-72
2022/07/17 08:14:29;;;;;;;5.32;1.13;;;18.80;99.90;;;;;;5089667;28;20434;-72
2022/07/17 08:16:54;;;;;;;6.03;1.00;;;18.90;99.90;;;;;;5072629;28;20047;-72
2022/07/17 08:19:20;;;;;;;2.03;0.80;;;18.90;99.90;;;;;;5089751;28;20452;-72
2022/07/17 08:21:46;;;;;;;6.38;1.20;;;19.00;99.90;;;;;;5089387;28;20044;-72
2022/07/17 08:24:11;;;;;;;7.82;1.30;;;19.20;99.90;;;;;;5089379;28;20036;-72
2022/07/17 08:26:37;;;;;;;2.40;0.70;;;19.30;99.90;;;;;;5089789;28;20067;-72
2022/07/17 08:29:03;;;;;;;4.85;0.93;;;19.40;99.90;;;;;;5087051;28;20044;-74
2022/07/17 08:31:28;;;;;;;2.55;1.05;;;19.50;99.90;;;;;;5071456;28;20133;-73
2022/07/17 08:33:54;;;;;;;10.20;1.40;;;19.50;99.90;;;;;;5069928;28;20119;-72
2022/07/17 08:36:19;;;;;;;8.35;1.25;;;19.70;99.90;;;;;;5089616;28;20048;-73
2022/07/17 08:38:45;;;;;;;3.13;0.90;;;19.60;99.90;;;;;;5089204;28;20036;-72
2022/07/17 08:41:15;;;;;;;4.20;1.25;;;19.40;99.90;;;;;;5072856;28;20107;-72
2022/07/17 08:43:41;;;;;;;5.28;1.20;;;19.30;99.90;;;;;;5088436;28;20040;-72
2022/07/17 08:46:10;;;;;;;2.53;0.88;;;19.50;99.90;;;;;;5089178;28;20044;-73
2022/07/17 08:48:39;;;;;;;8.15;1.17;;;19.30;99.90;;;;;;5072121;28;20040;-73
2022/07/17 08:51:06;;;;;;;4.88;1.00;;;19.10;99.90;;;;;;5091111;28;20047;-73
2022/07/17 08:53:32;;;;;;;6.72;1.38;;;19.30;99.90;;;;;;5090906;28;20044;-72
2022/07/17 08:55:58;;;;;;;4.78;1.02;;;19.40;99.90;;;;;;5074329;28;20036;-73
2022/07/17 08:58:23;;;;;;;5.32;1.10;;;19.70;99.90;;;;;;5078344;28;20746;-73
2022/07/17 09:00:50;;;;;;;2.80;1.50;;;19.70;99.90;;;;;;5078965;28;20039;-74
2022/07/17 09:03:17;;;;;;;10.85;1.33;;;19.80;99.90;;;;;;5082626;28;20036;-74
2022/07/17 09:05:43;;;;;;;4.85;1.00;;;19.60;99.90;;;;;;5088567;28;20499;-73
2022/07/17 09:08:17;;;;;;;7.97;1.27;;;19.50;99.90;;;;;;5089012;28;20040;-74
2022/07/17 09:10:45;;;;;;;3.90;1.25;;;19.40;99.90;;;;;;5088981;28;20050;-72
2022/07/17 09:13:17;;;;;;;3.15;0.90;;;19.60;99.90;;;;;;5084418;28;20027;-73
2022/07/17 09:15:44;;;;;;;7.93;1.10;;;19.60;99.90;;;;;;5114368;28;20036;-74
2022/07/17 09:18:09;;;;;;;7.00;1.48;;;19.50;99.90;;;;;;5104922;28;20044;-73
2022/07/17 09:20:43;;;;;;;5.50;1.00;;;19.60;99.90;;;;;;5083013;28;20046;-73
2022/07/17 09:23:08;;;;;;;8.45;1.30;;;19.60;99.90;;;;;;5066557;28;20036;-73
2022/07/17 09:25:36;;;;;;;4.10;1.08;;;19.70;99.90;;;;;;5080951;28;20424;-73
2022/07/17 09:28:04;;;;;;;7.35;1.35;;;19.60;99.90;;;;;;5082195;28;20028;-73
2022/07/17 09:30:32;;;;;;;5.00;1.30;;;19.60;99.90;;;;;;5083120;28;20094;-73
2022/07/17 09:32:58;;;;;;;3.92;1.30;;;19.40;99.90;;;;;;5064571;28;20408;-73
2022/07/17 09:35:24;;;;;;;6.13;1.40;;;19.50;99.90;;;;;;5106698;28;20056;-73
2022/07/17 09:37:53;;;;;;;4.85;1.15;;;19.50;99.90;;;;;;5096997;28;20142;-72
2022/07/17 09:43:04;;;;;;;5.85;1.10;;;19.50;99.90;;;;;;5094212;28;20506;-76
2022/07/17 09:45:35;;;;;;;2.28;1.10;;;19.70;99.90;;;;;;5093681;28;20067;-71
2022/07/17 09:48:01;;;;;;;3.85;1.10;;;19.90;99.90;;;;;;5091135;28;20115;-73
2022/07/17 09:50:28;;;;;;;3.72;0.90;;;19.80;99.90;;;;;;5094167;28;20143;-73
2022/07/17 09:52:56;;;;;;;8.13;1.33;;;19.90;99.90;;;;;;5075529;28;20051;-73
2022/07/17 09:55:28;;;;;;;3.88;1.05;;;20.00;99.90;;;;;;5094139;28;20081;-72
2022/07/17 09:57:55;;;;;;;4.10;1.00;;;20.10;99.90;;;;;;5092288;28;20051;-73
2022/07/17 10:00:22;;;;;;;4.57;1.10;;;20.20;99.90;;;;;;5093028;28;20045;-73
2022/07/17 10:02:48;;;;;;;7.45;1.20;;;20.30;99.90;;;;;;5092388;28;20032;-73
2022/07/17 10:05:15;;;;;;;2.80;1.00;;;20.20;99.90;;;;;;5092439;28;20044;-73
2022/07/17 10:07:48;;;;;;;5.28;1.23;;;20.20;99.90;;;;;;5092270;28;20093;-73
2022/07/17 10:10:16;;;;;;;5.50;0.98;;;20.00;99.90;;;;;;5090919;28;20483;-73
2022/07/17 10:12:48;;;;;;;4.07;1.25;;;20.20;99.90;;;;;;5082133;28;20051;-73
2022/07/17 10:15:15;;;;;;;1.85;0.88;;;20.40;99.90;;;;;;5081433;28;20565;-72
2022/07/17 10:17:40;;;;;;;5.00;0.95;;;20.40;99.90;;;;;;5066094;28;20047;-73
2022/07/17 10:20:07;;;;;;;3.35;1.10;;;20.40;99.90;;;;;;5081332;28;20416;-72
2022/07/17 10:22:44;;;;;;;4.57;1.10;;;20.40;99.90;;;;;;5099697;28;20024;-73
2022/07/17 10:25:16;;;;;;;4.50;1.13;;;20.30;99.90;;;;;;5102094;28;20043;-73
2022/07/17 10:27:51;;;;;;;3.10;0.93;;;20.30;99.90;;;;;;5083157;28;20036;-73
2022/07/17 10:30:28;;;;;;;1.45;0.85;;;20.30;99.90;;;;;;5082688;28;20109;-73
2022/07/17 10:32:58;;;;;;;4.32;1.02;;;20.40;99.90;;;;;;5081879;28;20048;-73
2022/07/17 10:35:26;;;;;;;6.10;1.10;;;20.60;99.90;;;;;;5063009;28;20446;-73
2022/07/17 10:37:52;;;;;;;2.42;1.10;;;20.60;99.90;;;;;;5055216;28;20036;-73
2022/07/17 10:40:20;;;;;;;3.55;1.00;;;20.90;99.90;;;;;;5071611;28;20051;-73
2022/07/17 10:42:53;;;;;;;3.03;1.00;;;21.00;99.90;;;;;;5071222;28;20036;-73
2022/07/17 10:45:20;;;;;;;4.38;1.20;;;21.10;99.90;;;;;;5071555;28;20055;-73
2022/07/17 10:48:01;;;;;;;4.82;1.10;;;21.10;99.70;;;;;;5071468;28;20087;-73
2022/07/17 10:50:35;;;;;;;4.40;1.00;;;21.10;99.70;;;;;;5071454;28;20056;-73
2022/07/17 10:53:20;;;;;;;8.30;1.33;;;21.20;99.70;;;;;;5054421;28;20052;-74
2022/07/17 10:55:53;;;;;;;5.63;1.05;;;21.10;98.40;;;;;;5071318;28;20122;-73
2022/07/17 10:58:32;;;;;;;3.70;1.00;;;21.20;98.80;;;;;;5071523;28;20113;-73
2022/07/17 11:01:14;;;;;;;4.95;1.13;;;21.20;98.30;;;;;;5071138;28;20427;-73
2022/07/17 11:03:41;;;;;;;2.88;1.08;;;21.10;98.40;;;;;;5072272;28;20068;-74
2022/07/17 11:06:11;;;;;;;6.70;1.15;;;21.00;98.80;;;;;;5071160;28;20051;-74
2022/07/17 11:08:56;;;;;;;3.90;0.75;;;21.00;98.60;;;;;;5071013;28;20041;-74
2022/07/17 11:11:41;;;;;;;2.72;0.90;;;21.10;98.50;;;;;;5071238;28;20405;-73
2022/07/17 11:14:14;;;;;;;4.57;1.20;;;21.30;98.90;;;;;;5073336;28;20041;-73
2022/07/17 11:16:48;;;;;;;7.00;1.42;;;21.30;98.20;;;;;;5073233;28;20400;-74
2022/07/17 11:19:41;;;;;;;4.72;1.23;;;21.30;98.10;;;;;;5074008;28;20067;-74
2022/07/17 11:22:10;;;;;;;2.67;1.27;;;21.40;98.50;;;;;;5071397;28;20435;-66
2022/07/17 11:24:39;;;;;;;3.63;1.10;;;21.30;98.80;;;;;;5072153;28;20075;-68
2022/07/17 11:27:05;;;;;;;1.92;1.25;;;21.20;98.70;;;;;;5072049;28;20053;-69
2022/07/17 11:29:39;;;;;;;5.07;1.48;;;21.20;98.60;;;;;;5075112;28;20040;-68
2022/07/17 11:32:05;;;;;;;3.58;0.98;;;21.50;99.00;;;;;;5095511;28;20056;-67
2022/07/17 11:34:31;;;;;;;4.72;1.33;;;21.60;99.00;;;;;;5080455;28;20040;-68
2022/07/17 11:37:02;;;;;;;7.78;1.10;;;21.60;99.00;;;;;;5083092;28;20032;-68
2022/07/17 11:39:41;;;;;;;3.15;0.88;;;21.70;98.90;;;;;;5092266;28;20490;-69
2022/07/17 11:42:09;;;;;;;3.80;1.25;;;21.90;99.00;;;;;;5091912;28;20484;-70
2022/07/17 11:44:35;;;;;;;3.53;1.15;;;22.00;99.00;;;;;;5091557;28;20051;-71
2022/07/17 11:47:01;;;;;;;8.55;1.13;;;22.10;98.80;;;;;;5090364;28;20127;-71
2022/07/17 11:49:29;;;;;;;3.50;1.10;;;22.20;98.60;;;;;;5091119;28;20504;-67
2022/07/17 11:52:06;;;;;;;5.28;1.10;;;22.00;98.20;;;;;;5091760;28;20071;-69
2022/07/17 11:54:31;;;;;;;7.43;1.20;;;22.00;98.00;;;;;;5091526;28;20407;-67
2022/07/17 11:56:58;;;;;;;4.68;1.38;;;22.10;98.30;;;;;;5090191;28;20048;-68
2022/07/17 11:59:32;;;;;;;3.92;1.08;;;22.00;98.20;;;;;;5091268;28;20047;-68
2022/07/17 12:02:11;;;;;;;4.63;1.30;;;22.10;98.70;;;;;;5091492;28;20036;-67
2022/07/17 12:04:57;;;;;;;2.05;1.17;;;22.20;97.80;;;;;;5091402;28;20032;-67
2022/07/17 12:07:25;;;;;;;2.35;1.40;;;22.30;98.00;;;;;;5090071;28;20115;-67
2022/07/17 12:09:52;;;;;;;3.63;1.40;;;22.40;97.60;;;;;;5091218;28;20051;-67
2022/07/17 12:12:26;;;;;;;3.40;1.58;;;22.20;97.80;;;;;;5091043;28;20051;-68
2022/07/17 12:14:51;;;;;;;2.20;1.40;;;22.10;96.90;;;;;;5091180;28;20047;-68
2022/07/17 12:17:17;;;;;;;5.40;1.40;;;22.20;97.60;;;;;;5091173;28;20036;-68
2022/07/17 12:19:42;;;;;;;3.05;1.00;;;22.10;97.30;;;;;;5091094;28;20067;-68
2022/07/17 12:22:08;;;;;;;4.70;1.65;;;22.00;97.60;;;;;;5089678;28;20048;-67
2022/07/17 12:24:38;;;;;;;2.42;1.13;;;22.30;97.90;;;;;;5089404;28;20418;-67
2022/07/17 12:27:07;;;;;;;7.93;1.52;;;22.30;97.30;;;;;;5091112;28;20036;-68
2022/07/17 12:29:33;;;;;;;2.63;1.27;;;22.50;97.50;;;;;;5089458;28;20548;-67
2022/07/17 12:32:11;;;;;;;2.60;1.52;;;22.50;96.60;;;;;;5090997;28;20135;-68
2022/07/17 12:34:44;;;;;;;5.20;1.60;;;22.30;96.40;;;;;;5090525;28;20040;-68
2022/07/17 12:37:11;;;;;;;5.43;1.42;;;22.50;97.00;;;;;;5090537;28;20044;-68
2022/07/17 12:39:36;;;;;;;7.60;1.50;;;22.30;96.60;;;;;;5102531;28;20044;-67
2022/07/17 12:42:03;;;;;;;3.67;1.77;;;22.50;97.00;;;;;;5102514;28;20069;-68
2022/07/17 12:44:29;;;;;;;5.03;1.70;;;22.80;96.90;;;;;;5090165;28;20613;-67
2022/07/17 12:46:54;;;;;;;3.65;1.40;;;22.90;96.80;;;;;;5089904;28;20048;-68